Time;durP1;ratioP1;P1;durP2;ratioP2;P2;SDS_P1;SDS_P2;PMS_P1;PMS_P2;Temp;Humidity;BMP_temperature;BMP_pressure;BME280_temperature;BME280_humidity;BME280_pressure;Samples;Min_cycle;Max_cycle;Signal;HPM_P1;HPM_P2
2024/02/29 00:01:58;;;;;;;20.50;16.63;;;4.40;99.90;;;;;;5024870;28;20439;-79
2024/02/29 00:04:28;;;;;;;21.10;17.60;;;4.50;99.90;;;;;;5016966;28;20451;-79
2024/02/29 00:06:53;;;;;;;22.70;17.42;;;4.50;99.90;;;;;;5020797;28;20382;-80
2024/02/29 00:09:19;;;;;;;20.77;16.33;;;4.40;99.90;;;;;;5035877;28;20403;-80
2024/02/29 00:11:44;;;;;;;23.60;17.65;;;4.50;99.90;;;;;;5019807;28;20389;-79
2024/02/29 00:14:10;;;;;;;21.75;16.80;;;4.60;99.90;;;;;;5013836;28;20396;-80
2024/02/29 00:16:35;;;;;;;22.23;17.65;;;4.70;99.90;;;;;;5031433;28;20395;-82
2024/02/29 00:19:01;;;;;;;21.67;16.50;;;4.60;99.90;;;;;;5017579;28;20387;-81
2024/02/29 00:21:29;;;;;;;22.67;17.83;;;4.60;99.90;;;;;;5033693;28;20403;-81
2024/02/29 00:23:54;;;;;;;21.60;17.60;;;4.50;99.90;;;;;;5018859;28;20389;-80
2024/02/29 00:26:20;;;;;;;21.40;17.50;;;4.60;99.90;;;;;;5013969;28;20447;-80
2024/02/29 00:28:46;;;;;;;22.27;17.57;;;4.50;99.90;;;;;;5022796;28;20388;-81
2024/02/29 00:31:11;;;;;;;21.87;17.13;;;4.60;99.90;;;;;;5031804;28;20379;-81
2024/02/29 00:33:37;;;;;;;22.60;16.83;;;4.60;99.90;;;;;;5022077;28;20404;-80
2024/02/29 00:36:02;;;;;;;19.73;15.30;;;4.70;99.90;;;;;;5014212;28;20394;-80
2024/02/29 00:38:28;;;;;;;21.83;15.80;;;4.60;99.90;;;;;;5029021;28;20391;-81
2024/02/29 00:40:53;;;;;;;22.60;16.55;;;4.40;99.90;;;;;;5033442;28;20492;-81
2024/02/29 00:43:19;;;;;;;23.40;16.88;;;4.40;99.90;;;;;;5020421;28;20869;-80
2024/02/29 00:45:45;;;;;;;23.35;17.92;;;4.30;99.90;;;;;;5011677;28;20388;-81
2024/02/29 00:48:10;;;;;;;22.60;17.20;;;4.30;99.90;;;;;;5012564;28;20480;-81
2024/02/29 00:50:36;;;;;;;20.88;16.13;;;4.40;99.90;;;;;;5011818;28;20760;-81
2024/02/29 00:53:01;;;;;;;22.77;17.08;;;4.40;99.90;;;;;;5014855;28;20403;-79
2024/02/29 00:55:27;;;;;;;21.60;16.17;;;4.40;99.90;;;;;;5019048;28;20465;-82
2024/02/29 00:57:52;;;;;;;20.90;17.03;;;4.40;99.90;;;;;;5033821;28;20387;-80
2024/02/29 01:00:18;;;;;;;22.40;17.20;;;4.50;99.90;;;;;;5020101;28;20419;-81
2024/02/29 01:02:44;;;;;;;22.27;16.60;;;4.30;99.90;;;;;;5017550;28;20416;-79
2024/02/29 01:05:10;;;;;;;23.47;16.70;;;4.40;99.90;;;;;;5024929;28;20393;-79
2024/02/29 01:07:36;;;;;;;22.60;16.35;;;4.30;99.90;;;;;;5017000;28;20393;-78
2024/02/29 01:10:05;;;;;;;21.33;16.13;;;4.20;99.90;;;;;;5016608;28;21022;-80
2024/02/29 01:12:31;;;;;;;21.27;15.52;;;4.20;99.90;;;;;;5022338;28;20814;-80
2024/02/29 01:14:57;;;;;;;21.33;15.38;;;4.30;99.90;;;;;;5032550;28;20864;-80
2024/02/29 01:17:24;;;;;;;20.73;17.10;;;4.20;99.90;;;;;;5031892;28;20398;-80
2024/02/29 01:19:50;;;;;;;21.27;15.68;;;4.20;99.90;;;;;;5018666;28;20464;-82
2024/02/29 01:22:15;;;;;;;23.00;17.13;;;4.20;99.90;;;;;;5032466;28;20383;-80
2024/02/29 01:24:41;;;;;;;21.48;16.85;;;4.20;99.90;;;;;;5016586;28;20388;-82
2024/02/29 01:27:07;;;;;;;20.13;15.60;;;4.10;99.90;;;;;;5011849;28;20480;-80
2024/02/29 01:29:32;;;;;;;23.95;17.05;;;4.10;99.90;;;;;;5017722;28;20423;-79
2024/02/29 01:31:58;;;;;;;24.15;17.52;;;4.00;99.90;;;;;;5026102;28;20802;-81
2024/02/29 01:34:23;;;;;;;21.65;16.55;;;4.00;99.90;;;;;;5017677;28;20397;-80
2024/02/29 01:36:49;;;;;;;20.98;16.58;;;4.00;99.90;;;;;;5021628;28;20397;-81
2024/02/29 01:39:14;;;;;;;24.25;17.17;;;4.00;99.90;;;;;;5017334;28;20387;-82
2024/02/29 01:41:40;;;;;;;22.33;15.90;;;4.00;99.90;;;;;;5038733;28;20403;-80
2024/02/29 01:44:05;;;;;;;20.43;15.60;;;4.10;99.90;;;;;;5038319;28;20391;-80
2024/02/29 01:46:31;;;;;;;20.40;16.20;;;4.00;99.90;;;;;;5027088;28;20475;-82
2024/02/29 01:48:58;;;;;;;21.70;16.80;;;4.00;99.90;;;;;;5024826;28;20915;-80
2024/02/29 01:51:25;;;;;;;21.67;16.33;;;4.00;99.90;;;;;;5015324;28;20393;-81
2024/02/29 01:53:51;;;;;;;20.73;15.50;;;4.00;99.90;;;;;;5025089;28;20383;-81
2024/02/29 01:56:18;;;;;;;22.70;16.63;;;4.00;99.90;;;;;;5030037;28;20400;-80
2024/02/29 01:58:44;;;;;;;21.25;16.00;;;3.60;99.90;;;;;;5017789;28;20451;-79
2024/02/29 02:01:10;;;;;;;21.40;16.80;;;3.90;99.90;;;;;;5036276;28;20398;-80
2024/02/29 02:03:36;;;;;;;21.80;15.85;;;3.90;99.90;;;;;;5031736;28;20397;-81
2024/02/29 02:06:02;;;;;;;18.05;14.20;;;3.90;99.90;;;;;;5025659;28;20389;-80
2024/02/29 02:08:31;;;;;;;20.70;15.57;;;3.90;99.90;;;;;;5025851;28;20397;-81
2024/02/29 02:10:57;;;;;;;22.70;15.57;;;3.80;99.90;;;;;;5034907;28;20915;-81
2024/02/29 02:13:22;;;;;;;18.77;14.38;;;3.70;99.90;;;;;;5029554;28;20406;-81
2024/02/29 02:15:48;;;;;;;18.45;13.93;;;3.60;99.90;;;;;;5028414;28;20416;-83
2024/02/29 02:18:14;;;;;;;17.90;13.07;;;3.70;99.90;;;;;;5028638;28;20403;-80
2024/02/29 02:20:40;;;;;;;18.30;14.27;;;3.70;99.90;;;;;;5036229;28;20413;-82
2024/02/29 02:23:05;;;;;;;17.83;14.70;;;3.60;99.90;;;;;;5032357;28;20861;-81
2024/02/29 02:25:31;;;;;;;17.80;13.87;;;3.60;99.90;;;;;;5025457;28;20387;-80
2024/02/29 02:27:57;;;;;;;19.70;15.23;;;3.50;99.90;;;;;;5033016;28;20390;-81
2024/02/29 02:30:22;;;;;;;20.40;14.80;;;3.40;99.90;;;;;;5020636;28;20469;-81
2024/02/29 02:32:48;;;;;;;19.50;14.73;;;3.50;99.90;;;;;;5017026;28;20388;-82
2024/02/29 02:35:13;;;;;;;17.60;14.13;;;3.50;99.90;;;;;;5016501;28;20401;-80
2024/02/29 02:37:40;;;;;;;19.20;14.43;;;3.60;99.90;;;;;;5031010;28;21053;-80
2024/02/29 02:40:06;;;;;;;18.60;14.05;;;3.50;99.90;;;;;;5036504;28;20407;-81
2024/02/29 02:42:31;;;;;;;19.35;14.40;;;3.60;99.90;;;;;;5018109;28;20418;-82
2024/02/29 02:44:57;;;;;;;20.17;13.77;;;3.60;99.90;;;;;;5036929;28;20397;-81
2024/02/29 02:47:23;;;;;;;16.53;12.77;;;3.60;99.90;;;;;;5033950;28;20479;-82
2024/02/29 02:49:48;;;;;;;16.60;12.60;;;3.40;99.90;;;;;;5030892;28;20900;-81
2024/02/29 02:52:14;;;;;;;17.23;13.80;;;3.30;99.90;;;;;;5027728;28;20871;-82
2024/02/29 02:54:40;;;;;;;17.43;14.03;;;3.40;99.90;;;;;;5018614;28;20396;-83
2024/02/29 02:57:05;;;;;;;16.40;13.20;;;3.30;99.90;;;;;;5020069;28;20423;-81
2024/02/29 02:59:31;;;;;;;14.83;12.73;;;3.20;99.90;;;;;;5016564;28;20400;-81
2024/02/29 03:01:56;;;;;;;17.23;12.70;;;3.40;99.90;;;;;;5016424;28;20412;-81
2024/02/29 03:04:22;;;;;;;17.97;13.70;;;3.30;99.90;;;;;;5018431;28;20777;-83
2024/02/29 03:06:47;;;;;;;17.80;13.10;;;3.40;99.90;;;;;;5022922;28;20472;-81
2024/02/29 03:09:13;;;;;;;16.90;12.67;;;3.30;99.90;;;;;;5030765;28;20414;-84
2024/02/29 03:11:38;;;;;;;14.70;12.10;;;3.40;99.90;;;;;;5037769;28;20387;-81
2024/02/29 03:14:04;;;;;;;17.17;13.00;;;3.30;99.90;;;;;;5017498;28;20396;-82
2024/02/29 03:16:31;;;;;;;19.77;13.52;;;3.30;99.90;;;;;;5015326;28;20396;-80
2024/02/29 03:18:56;;;;;;;16.33;13.38;;;3.10;99.90;;;;;;5013501;28;20413;-82
2024/02/29 03:21:22;;;;;;;16.75;12.90;;;3.10;99.90;;;;;;5021489;28;20410;-81
2024/02/29 03:23:47;;;;;;;15.93;12.18;;;3.10;99.90;;;;;;5030339;28;20399;-80
2024/02/29 03:26:13;;;;;;;17.50;12.40;;;2.70;99.90;;;;;;5024874;28;20383;-81
2024/02/29 03:28:39;;;;;;;14.98;11.93;;;3.10;99.90;;;;;;5033285;28;20375;-81
2024/02/29 03:31:15;;;;;;;17.00;12.10;;;3.10;99.90;;;;;;5033645;28;20390;-81
2024/02/29 03:33:41;;;;;;;18.17;12.57;;;3.00;99.90;;;;;;5026049;28;20763;-81
2024/02/29 03:36:08;;;;;;;15.98;11.90;;;3.10;99.90;;;;;;5034172;28;20823;-80
2024/02/29 03:38:35;;;;;;;15.07;12.10;;;3.10;99.90;;;;;;5030888;28;20391;-82
2024/02/29 03:41:00;;;;;;;17.35;12.82;;;3.20;99.90;;;;;;5031402;28;20435;-83
2024/02/29 03:43:26;;;;;;;15.43;11.73;;;3.10;99.90;;;;;;5013270;28;20494;-80
2024/02/29 03:45:52;;;;;;;15.55;11.10;;;3.20;99.90;;;;;;5014181;28;20877;-80
2024/02/29 03:48:18;;;;;;;14.73;11.88;;;3.20;99.90;;;;;;5019888;28;20383;-81
2024/02/29 03:50:44;;;;;;;15.48;11.20;;;3.20;99.90;;;;;;5032382;28;20390;-80
2024/02/29 03:53:10;;;;;;;15.30;11.97;;;3.30;99.90;;;;;;5021209;28;20392;-81
2024/02/29 03:55:36;;;;;;;14.88;10.63;;;3.40;99.90;;;;;;5024037;28;20424;-79
2024/02/29 03:58:03;;;;;;;15.37;11.60;;;3.30;99.90;;;;;;5014339;28;20509;-81
2024/02/29 04:00:28;;;;;;;14.80;11.10;;;3.40;99.90;;;;;;5017419;28;20408;-81
2024/02/29 04:02:54;;;;;;;17.20;13.17;;;3.20;99.90;;;;;;5017889;28;20403;-79
2024/02/29 04:05:24;;;;;;;17.47;13.07;;;3.30;99.90;;;;;;5022720;28;20384;-79
2024/02/29 04:07:50;;;;;;;14.95;11.40;;;3.50;99.90;;;;;;5026639;28;20436;-79
2024/02/29 04:10:16;;;;;;;13.18;11.52;;;3.40;99.90;;;;;;5027733;28;20470;-79
2024/02/29 04:12:41;;;;;;;16.10;11.93;;;3.40;99.90;;;;;;5028313;28;20408;-81
2024/02/29 04:15:08;;;;;;;12.70;10.93;;;3.40;99.90;;;;;;5016165;28;20400;-80
2024/02/29 04:17:33;;;;;;;14.45;10.98;;;3.30;99.90;;;;;;5016349;28;20769;-81
2024/02/29 04:19:59;;;;;;;14.10;11.32;;;3.20;99.90;;;;;;5015527;28;20412;-81
2024/02/29 04:22:25;;;;;;;13.07;10.68;;;3.40;99.90;;;;;;5019212;28;20402;-79
2024/02/29 04:24:51;;;;;;;15.13;11.30;;;3.40;99.90;;;;;;5032192;28;20400;-79
2024/02/29 04:27:16;;;;;;;13.15;10.88;;;3.40;99.90;;;;;;5028750;28;20392;-79
2024/02/29 04:29:45;;;;;;;15.50;11.47;;;3.50;99.90;;;;;;5015213;28;20876;-81
2024/02/29 04:32:11;;;;;;;16.20;10.80;;;3.50;99.90;;;;;;5031140;28;20390;-81
2024/02/29 04:34:36;;;;;;;14.98;10.82;;;3.50;99.90;;;;;;5033495;28;20978;-80
2024/02/29 04:37:03;;;;;;;14.07;11.00;;;3.50;99.90;;;;;;5033429;28;20461;-81
2024/02/29 04:39:28;;;;;;;17.05;10.93;;;3.60;99.90;;;;;;5033340;28;20867;-82
2024/02/29 04:41:54;;;;;;;13.13;10.18;;;3.60;99.90;;;;;;5029755;28;20402;-81
2024/02/29 04:44:19;;;;;;;14.70;10.85;;;3.60;99.90;;;;;;5032106;28;20383;-82
2024/02/29 04:46:45;;;;;;;13.82;11.15;;;3.70;99.90;;;;;;5031017;28;20726;-79
2024/02/29 04:49:10;;;;;;;15.18;11.75;;;3.60;99.90;;;;;;5035776;28;20391;-79
2024/02/29 04:51:36;;;;;;;13.80;11.00;;;3.60;99.90;;;;;;5018783;28;20487;-79
2024/02/29 04:54:01;;;;;;;14.50;11.70;;;3.80;99.90;;;;;;5022318;28;20401;-81
2024/02/29 04:56:28;;;;;;;14.93;10.40;;;3.70;99.90;;;;;;5022340;28;20398;-82
2024/02/29 04:58:53;;;;;;;16.23;11.50;;;3.70;99.90;;;;;;5017241;28;20521;-81
2024/02/29 05:01:19;;;;;;;14.35;11.18;;;3.70;99.90;;;;;;5019773;28;20417;-81
2024/02/29 05:03:45;;;;;;;15.38;10.35;;;3.80;99.90;;;;;;5016235;28;20462;-82
2024/02/29 05:06:15;;;;;;;13.65;10.43;;;3.60;99.90;;;;;;5020771;28;20395;-80
2024/02/29 05:08:41;;;;;;;13.80;10.88;;;3.70;99.90;;;;;;5021504;28;20382;-81
2024/02/29 05:11:10;;;;;;;13.38;10.63;;;3.70;99.90;;;;;;5021707;28;20405;-80
2024/02/29 05:13:35;;;;;;;14.65;10.80;;;3.60;99.90;;;;;;5021396;28;20393;-82
2024/02/29 05:16:05;;;;;;;13.13;10.50;;;3.80;99.90;;;;;;5020626;28;20515;-82
2024/02/29 05:18:30;;;;;;;13.45;10.98;;;3.80;99.90;;;;;;5021873;28;20457;-80
2024/02/29 05:20:56;;;;;;;12.35;9.70;;;3.80;99.90;;;;;;5024645;28;20412;-81
2024/02/29 05:23:21;;;;;;;15.10;10.55;;;3.90;99.90;;;;;;5023882;28;20422;-80
2024/02/29 05:25:47;;;;;;;13.40;10.77;;;4.10;99.90;;;;;;5021867;28;20431;-80
2024/02/29 05:28:13;;;;;;;14.23;11.00;;;3.80;99.90;;;;;;5021310;28;20406;-80
2024/02/29 05:30:39;;;;;;;14.35;11.45;;;3.80;99.90;;;;;;5018802;28;20412;-81
2024/02/29 05:33:04;;;;;;;13.98;10.52;;;3.80;99.90;;;;;;5021568;28;20555;-80
2024/02/29 05:35:31;;;;;;;14.38;11.27;;;3.90;99.90;;;;;;5021450;28;20398;-80
2024/02/29 05:37:57;;;;;;;15.50;10.90;;;3.90;99.90;;;;;;5020202;28;20403;-81
2024/02/29 05:40:23;;;;;;;12.73;10.20;;;3.90;99.90;;;;;;5019624;28;20511;-80
2024/02/29 05:42:48;;;;;;;14.17;11.00;;;3.80;99.90;;;;;;5019129;28;20411;-81
2024/02/29 05:45:14;;;;;;;12.83;10.40;;;4.10;99.90;;;;;;5018155;28;20850;-80
2024/02/29 05:47:39;;;;;;;16.73;11.17;;;4.10;99.90;;;;;;5022014;28;20413;-81
2024/02/29 05:50:05;;;;;;;15.90;10.97;;;4.20;99.90;;;;;;5022731;28;20440;-82
2024/02/29 05:52:31;;;;;;;14.38;11.02;;;4.10;99.90;;;;;;5020970;28;20464;-80
2024/02/29 05:54:57;;;;;;;11.80;10.13;;;4.10;99.90;;;;;;5019811;28;20812;-80
2024/02/29 05:57:24;;;;;;;13.80;10.83;;;3.90;99.90;;;;;;5019265;28;20499;-80
2024/02/29 05:59:50;;;;;;;12.02;10.50;;;3.80;99.90;;;;;;5018641;28;20739;-80
2024/02/29 06:02:15;;;;;;;15.33;11.53;;;3.70;99.90;;;;;;5019545;28;20399;-81
2024/02/29 06:04:41;;;;;;;15.47;11.50;;;3.80;99.90;;;;;;5019155;28;20428;-81
2024/02/29 06:07:06;;;;;;;14.10;11.10;;;3.70;99.90;;;;;;5018865;28;20904;-82
2024/02/29 06:09:35;;;;;;;14.90;11.63;;;3.80;99.90;;;;;;5017104;28;20388;-81
2024/02/29 06:12:01;;;;;;;15.45;11.60;;;3.70;99.90;;;;;;5024372;28;20423;-81
2024/02/29 06:14:27;;;;;;;13.50;11.10;;;3.70;99.90;;;;;;5027143;28;20452;-82
2024/02/29 06:16:52;;;;;;;15.45;11.63;;;3.60;99.90;;;;;;5031405;28;20397;-81
2024/02/29 06:19:18;;;;;;;14.50;11.70;;;3.60;99.90;;;;;;5026070;28;20407;-79
2024/02/29 06:21:43;;;;;;;14.20;11.40;;;3.40;99.90;;;;;;5036315;28;20991;-79
2024/02/29 06:24:09;;;;;;;12.93;10.97;;;3.70;99.90;;;;;;5026271;28;20480;-79
2024/02/29 06:26:35;;;;;;;14.90;10.77;;;3.70;99.90;;;;;;5027450;28;20433;-79
2024/02/29 06:29:00;;;;;;;13.75;10.93;;;3.60;99.90;;;;;;5025898;28;20387;-81
2024/02/29 06:31:26;;;;;;;14.00;11.00;;;3.60;99.90;;;;;;5031849;28;20391;-79
2024/02/29 06:33:52;;;;;;;13.10;10.23;;;3.70;99.90;;;;;;5026034;28;20839;-79
2024/02/29 06:36:18;;;;;;;13.63;10.90;;;3.80;99.90;;;;;;5035331;28;20416;-80
2024/02/29 06:38:43;;;;;;;17.05;11.20;;;3.80;99.90;;;;;;5024059;28;20410;-80
2024/02/29 06:41:09;;;;;;;14.70;10.70;;;3.70;99.90;;;;;;5032026;28;20414;-81
2024/02/29 06:43:34;;;;;;;14.30;11.25;;;3.90;99.90;;;;;;5025641;28;20404;-81
2024/02/29 06:46:04;;;;;;;14.73;10.93;;;3.80;99.90;;;;;;5026835;28;20388;-80
2024/02/29 06:48:30;;;;;;;14.70;11.43;;;3.80;99.90;;;;;;5028128;28;20472;-82
2024/02/29 06:50:56;;;;;;;12.63;11.30;;;3.80;99.90;;;;;;5022804;28;20490;-80
2024/02/29 06:53:21;;;;;;;16.90;10.20;;;4.00;99.90;;;;;;5030734;28;20467;-82
2024/02/29 06:55:47;;;;;;;14.77;11.73;;;4.00;99.90;;;;;;5026506;28;20387;-81
2024/02/29 06:58:12;;;;;;;14.07;11.67;;;4.00;99.90;;;;;;5024137;28;20478;-81
2024/02/29 07:00:39;;;;;;;14.70;11.80;;;4.10;99.90;;;;;;5026550;28;21003;-81
2024/02/29 07:03:06;;;;;;;14.50;11.27;;;4.10;99.90;;;;;;5032270;28;20774;-80
2024/02/29 07:05:32;;;;;;;14.65;10.95;;;4.10;99.90;;;;;;5022753;28;20420;-80
2024/02/29 07:07:57;;;;;;;14.07;11.10;;;4.10;99.90;;;;;;5038596;28;20410;-81
2024/02/29 07:10:23;;;;;;;19.20;11.83;;;4.10;99.90;;;;;;5023353;28;20412;-82
2024/02/29 07:12:49;;;;;;;14.50;10.80;;;4.40;99.90;;;;;;5043714;28;20411;-81
2024/02/29 07:15:15;;;;;;;13.03;10.60;;;4.30;99.90;;;;;;5030716;28;20404;-81
2024/02/29 07:17:41;;;;;;;13.90;11.05;;;4.30;99.90;;;;;;5017927;28;20478;-82
2024/02/29 07:20:10;;;;;;;14.30;11.23;;;4.40;99.90;;;;;;5019396;28;20438;-81
2024/02/29 07:22:37;;;;;;;13.40;11.07;;;4.40;99.90;;;;;;5031405;28;20383;-81
2024/02/29 07:25:03;;;;;;;14.55;11.18;;;4.40;99.90;;;;;;5023771;28;22078;-80
2024/02/29 07:27:29;;;;;;;15.35;10.82;;;4.50;99.90;;;;;;5029191;28;20382;-82
2024/02/29 07:29:54;;;;;;;14.02;11.55;;;4.60;99.90;;;;;;5022743;28;20392;-82
2024/02/29 07:32:20;;;;;;;14.33;10.80;;;4.70;99.90;;;;;;5019314;28;20416;-80
2024/02/29 07:34:45;;;;;;;14.43;10.83;;;4.90;99.90;;;;;;5018372;28;20423;-81
2024/02/29 07:37:11;;;;;;;15.73;11.17;;;4.90;99.90;;;;;;5014895;28;20769;-80
2024/02/29 07:39:36;;;;;;;14.73;10.83;;;5.10;99.90;;;;;;5014893;28;20472;-81
2024/02/29 07:42:03;;;;;;;15.15;11.45;;;5.00;99.90;;;;;;5015862;28;20455;-80
2024/02/29 07:44:29;;;;;;;14.35;11.18;;;5.30;99.90;;;;;;5014767;28;20423;-80
2024/02/29 07:46:54;;;;;;;15.98;12.20;;;5.40;99.90;;;;;;5014131;28;20385;-80
2024/02/29 07:49:20;;;;;;;12.32;10.00;;;5.50;99.90;;;;;;5015489;28;20411;-81
2024/02/29 07:51:46;;;;;;;14.00;11.40;;;5.60;99.90;;;;;;5014235;28;20419;-80
2024/02/29 07:54:11;;;;;;;12.40;10.30;;;5.60;99.90;;;;;;5014350;28;20466;-82
2024/02/29 07:56:43;;;;;;;13.95;10.98;;;5.80;99.90;;;;;;5015611;28;20389;-80
2024/02/29 07:59:09;;;;;;;13.98;10.85;;;5.70;99.90;;;;;;5014934;28;20411;-81
2024/02/29 08:01:35;;;;;;;13.25;10.93;;;5.90;99.90;;;;;;5014996;28;20415;-81
2024/02/29 08:04:00;;;;;;;13.07;10.23;;;5.90;99.90;;;;;;5015375;28;20940;-81
2024/02/29 08:06:26;;;;;;;11.77;10.40;;;6.00;99.90;;;;;;5015528;28;20388;-80
2024/02/29 08:08:51;;;;;;;11.73;9.93;;;6.10;99.90;;;;;;5015716;28;20434;-81
2024/02/29 08:11:17;;;;;;;13.25;10.90;;;6.00;99.90;;;;;;5014642;28;20795;-81
2024/02/29 08:13:42;;;;;;;15.33;11.00;;;5.90;99.90;;;;;;5014117;28;20389;-80
2024/02/29 08:16:08;;;;;;;14.23;11.23;;;6.00;99.90;;;;;;5015422;28;20420;-81
2024/02/29 08:18:33;;;;;;;13.53;10.80;;;6.20;99.90;;;;;;5013981;28;20495;-83
2024/02/29 08:20:59;;;;;;;13.20;11.15;;;6.30;99.90;;;;;;5013723;28;20409;-82
2024/02/29 08:23:24;;;;;;;14.85;11.20;;;6.40;99.90;;;;;;5015052;28;20401;-82
2024/02/29 08:25:51;;;;;;;13.47;11.03;;;6.40;99.90;;;;;;5025787;28;20379;-81
2024/02/29 08:28:17;;;;;;;12.40;9.97;;;6.50;99.90;;;;;;5034306;28;20860;-80
2024/02/29 08:30:42;;;;;;;11.60;9.80;;;6.60;99.90;;;;;;5033940;28;20432;-79
2024/02/29 08:33:08;;;;;;;12.27;10.80;;;6.70;99.90;;;;;;5033886;28;20504;-80
2024/02/29 08:35:33;;;;;;;13.63;10.60;;;6.80;99.90;;;;;;5033167;28;20732;-80
2024/02/29 08:37:59;;;;;;;12.40;10.13;;;6.70;99.90;;;;;;5033249;28;20865;-79
2024/02/29 08:40:24;;;;;;;12.63;11.03;;;6.80;99.90;;;;;;5036028;28;20902;-82
2024/02/29 08:42:51;;;;;;;13.50;10.73;;;6.70;99.90;;;;;;5036134;28;20466;-83
2024/02/29 08:45:17;;;;;;;11.90;10.40;;;6.80;99.90;;;;;;5034806;28;20382;-79
2024/02/29 08:47:42;;;;;;;13.07;10.80;;;6.90;99.90;;;;;;5036937;28;20379;-82
2024/02/29 08:50:08;;;;;;;13.20;10.90;;;7.10;99.90;;;;;;5035799;28;20391;-83
2024/02/29 08:52:34;;;;;;;13.25;11.20;;;7.40;99.90;;;;;;5037580;28;20391;-79
2024/02/29 08:55:00;;;;;;;13.10;10.80;;;7.30;99.90;;;;;;5035660;28;20767;-82
2024/02/29 08:57:25;;;;;;;15.17;11.63;;;7.20;99.90;;;;;;5036895;28;20391;-78
2024/02/29 08:59:51;;;;;;;14.00;11.73;;;7.20;99.90;;;;;;5034624;28;20383;-81
2024/02/29 09:02:18;;;;;;;15.55;12.45;;;7.20;99.90;;;;;;5033516;28;20402;-82
2024/02/29 09:04:44;;;;;;;13.15;11.75;;;7.50;99.90;;;;;;5033734;28;20375;-81
2024/02/29 09:07:10;;;;;;;16.90;13.18;;;7.40;99.90;;;;;;5034585;28;20462;-80
2024/02/29 09:09:36;;;;;;;13.87;12.03;;;7.30;99.90;;;;;;5033791;28;20484;-81
2024/02/29 09:12:06;;;;;;;14.18;12.10;;;7.50;99.90;;;;;;5031915;28;20387;-80
2024/02/29 09:14:31;;;;;;;15.18;12.15;;;7.60;99.90;;;;;;5033384;28;20390;-79
2024/02/29 09:16:57;;;;;;;16.52;12.30;;;7.50;99.90;;;;;;5033650;28;20379;-80
2024/02/29 09:19:22;;;;;;;13.95;11.80;;;7.80;99.90;;;;;;5064653;22;20436;-87
2024/02/29 09:21:48;;;;;;;14.87;11.63;;;7.30;99.90;;;;;;5045065;28;20416;-84
2024/02/29 09:24:13;;;;;;;14.70;12.43;;;7.40;99.90;;;;;;5058443;28;20468;-84
2024/02/29 09:26:39;;;;;;;14.90;11.10;;;7.70;99.90;;;;;;5058449;28;20389;-83
2024/02/29 09:29:04;;;;;;;12.63;11.25;;;7.50;99.90;;;;;;5058600;28;20437;-84
2024/02/29 09:31:30;;;;;;;14.75;11.25;;;8.10;99.90;;;;;;5075406;28;20384;-84
2024/02/29 09:33:56;;;;;;;13.47;10.57;;;8.30;99.90;;;;;;5058270;28;20397;-84
2024/02/29 09:36:21;;;;;;;15.83;11.40;;;7.40;99.90;;;;;;5058447;28;20385;-84
2024/02/29 09:38:47;;;;;;;13.90;11.57;;;7.60;99.90;;;;;;5058588;28;20401;-84
2024/02/29 09:41:14;;;;;;;15.23;11.90;;;7.60;99.90;;;;;;5075279;28;20402;-85
2024/02/29 09:43:41;;;;;;;14.23;11.93;;;7.60;99.90;;;;;;5057971;28;20480;-85
2024/02/29 09:46:10;;;;;;;15.88;11.93;;;7.80;99.90;;;;;;5033299;28;20413;-85
2024/02/29 09:48:40;;;;;;;15.30;11.77;;;8.00;99.90;;;;;;5051083;28;20417;-85
2024/02/29 09:51:06;;;;;;;14.40;12.18;;;7.90;99.90;;;;;;5054462;28;20739;-85
2024/02/29 09:53:34;;;;;;;13.27;10.98;;;7.60;99.90;;;;;;5037137;28;20904;-85
2024/02/29 09:56:02;;;;;;;15.85;12.07;;;8.10;99.90;;;;;;5037226;28;20803;-85
2024/02/29 09:58:29;;;;;;;13.38;11.15;;;7.00;99.90;;;;;;5054731;28;20485;-85
2024/02/29 10:00:55;;;;;;;14.52;11.80;;;7.80;99.90;;;;;;5036898;28;20409;-84
2024/02/29 10:03:21;;;;;;;15.57;12.80;;;7.90;99.90;;;;;;5036510;28;20373;-85
2024/02/29 10:05:48;;;;;;;15.73;13.40;;;7.90;99.90;;;;;;5036935;28;20900;-85
2024/02/29 10:08:13;;;;;;;15.45;12.45;;;7.70;99.90;;;;;;5054674;28;20418;-86
2024/02/29 10:10:39;;;;;;;15.45;12.98;;;8.40;99.90;;;;;;5054504;28;20464;-86
2024/02/29 10:13:08;;;;;;;16.40;12.70;;;8.40;99.90;;;;;;5054729;28;20388;-86
2024/02/29 10:15:33;;;;;;;15.37;12.83;;;8.50;99.90;;;;;;5036381;28;20483;-86
2024/02/29 10:18:00;;;;;;;16.70;13.57;;;7.80;99.90;;;;;;5054573;28;20857;-86
2024/02/29 10:20:26;;;;;;;16.67;13.13;;;8.50;99.90;;;;;;5036259;28;20929;-86
2024/02/29 10:22:52;;;;;;;18.15;13.40;;;8.60;99.90;;;;;;5055250;28;20391;-86
2024/02/29 10:25:19;;;;;;;15.48;12.85;;;8.50;99.90;;;;;;5036283;28;20480;-85
2024/02/29 10:27:44;;;;;;;15.25;13.20;;;8.60;99.90;;;;;;5036383;28;20390;-86
2024/02/29 10:30:15;;;;;;;15.65;12.75;;;8.70;99.90;;;;;;5035720;28;20439;-86
2024/02/29 10:32:42;;;;;;;14.55;12.80;;;8.60;99.90;;;;;;5053294;28;20480;-86
2024/02/29 10:35:15;;;;;;;18.02;14.05;;;8.90;99.90;;;;;;5035502;28;20389;-86
2024/02/29 10:37:41;;;;;;;16.60;13.25;;;9.10;99.90;;;;;;5035809;28;20401;-86
2024/02/29 10:40:07;;;;;;;16.70;14.20;;;9.40;99.90;;;;;;5035970;28;20462;-86
2024/02/29 10:42:34;;;;;;;18.13;15.10;;;9.30;99.90;;;;;;5054801;28;20378;-86
2024/02/29 10:45:01;;;;;;;16.50;13.02;;;9.20;99.90;;;;;;5034998;28;20469;-86
2024/02/29 10:47:29;;;;;;;15.80;13.82;;;9.00;99.90;;;;;;5039918;28;20390;-86
2024/02/29 10:50:03;;;;;;;17.67;14.07;;;9.70;99.90;;;;;;5038236;28;20382;-86
2024/02/29 10:52:33;;;;;;;15.77;13.20;;;9.50;99.90;;;;;;5055855;28;20384;-86
2024/02/29 10:55:10;;;;;;;17.30;13.90;;;9.60;99.90;;;;;;5038247;28;20389;-86
2024/02/29 10:57:44;;;;;;;17.95;13.93;;;9.60;99.90;;;;;;5037935;28;20381;-86
2024/02/29 11:00:11;;;;;;;17.75;13.68;;;9.60;99.90;;;;;;5060765;28;20496;-84
2024/02/29 11:02:38;;;;;;;18.27;13.63;;;9.70;99.90;;;;;;5064491;28;20750;-85
2024/02/29 11:05:05;;;;;;;16.92;14.00;;;9.20;99.90;;;;;;5060327;28;20416;-86
2024/02/29 11:07:31;;;;;;;15.82;13.02;;;9.80;99.90;;;;;;5036583;28;20407;-86
2024/02/29 11:09:58;;;;;;;15.13;13.00;;;9.70;99.90;;;;;;5036711;28;20464;-86
2024/02/29 11:12:27;;;;;;;16.85;14.50;;;10.10;99.90;;;;;;5037411;28;20385;-85
2024/02/29 11:14:57;;;;;;;16.75;13.70;;;10.10;99.90;;;;;;5037330;28;20951;-85
2024/02/29 11:17:26;;;;;;;16.98;14.20;;;9.90;99.90;;;;;;5055355;28;20862;-86
2024/02/29 11:20:03;;;;;;;16.08;13.20;;;10.10;99.90;;;;;;5036993;28;20405;-86
2024/02/29 11:22:33;;;;;;;16.25;13.45;;;10.60;99.90;;;;;;5036474;28;20394;-86
2024/02/29 11:24:59;;;;;;;16.33;13.57;;;10.00;99.90;;;;;;5036557;28;20389;-85
2024/02/29 11:27:34;;;;;;;14.70;12.73;;;10.40;99.90;;;;;;5039232;28;20378;-86
2024/02/29 11:30:00;;;;;;;17.23;14.23;;;10.60;99.90;;;;;;5038596;28;20443;-86
2024/02/29 11:32:29;;;;;;;17.63;14.38;;;10.60;99.90;;;;;;5037371;28;20385;-86
2024/02/29 11:34:55;;;;;;;15.85;14.15;;;10.40;99.90;;;;;;5037156;28;20390;-86
2024/02/29 11:37:20;;;;;;;18.10;14.90;;;11.00;99.90;;;;;;5055622;28;20496;-86
2024/02/29 11:39:48;;;;;;;19.17;16.25;;;11.10;99.90;;;;;;5037233;28;20394;-86
2024/02/29 11:42:13;;;;;;;18.27;14.90;;;11.60;99.90;;;;;;5036909;28;20389;-86
2024/02/29 11:44:46;;;;;;;19.52;16.08;;;10.30;99.90;;;;;;5057129;28;20432;-87
2024/02/29 11:47:12;;;;;;;17.65;15.50;;;11.30;99.90;;;;;;5039232;28;20382;-85
2024/02/29 11:49:37;;;;;;;19.38;16.20;;;12.30;99.90;;;;;;5055395;28;20397;-86
2024/02/29 11:52:03;;;;;;;18.30;15.07;;;12.00;99.90;;;;;;5037229;28;20909;-86
2024/02/29 11:54:30;;;;;;;18.60;15.23;;;12.20;99.90;;;;;;5035465;28;20393;-86
2024/02/29 11:56:56;;;;;;;18.42;15.10;;;12.20;99.90;;;;;;5034535;28;20386;-87
2024/02/29 11:59:23;;;;;;;17.23;14.85;;;11.80;99.90;;;;;;5039099;28;20389;-85
2024/02/29 12:01:49;;;;;;;18.35;15.57;;;12.10;99.90;;;;;;5034717;28;20496;-86
2024/02/29 12:04:16;;;;;;;17.33;15.40;;;12.00;99.90;;;;;;5052895;28;20417;-89
2024/02/29 12:06:46;;;;;;;17.52;14.75;;;11.70;99.90;;;;;;5036427;28;20748;-88
2024/02/29 12:09:13;;;;;;;17.10;13.88;;;12.40;99.90;;;;;;5051895;28;20463;-88
2024/02/29 12:11:44;;;;;;;16.40;14.30;;;11.90;99.90;;;;;;5073439;28;20439;-88
2024/02/29 12:14:25;;;;;;;16.98;14.55;;;12.30;99.90;;;;;;5040715;28;20476;-87
2024/02/29 12:17:28;;;;;;;17.00;14.40;;;12.60;99.90;;;;;;5053999;28;20389;-89
2024/02/29 12:23:09;;;;;;;15.43;13.73;;;;;;;;;;5055191;28;20408;-82
2024/02/29 12:25:35;;;;;;;16.65;13.80;;;14.20;99.90;;;;;;5041880;28;20389;-84
2024/02/29 12:28:02;;;;;;;15.52;13.20;;;;;;;;;;5036066;28;20385;-84
2024/02/29 12:30:28;;;;;;;13.63;12.23;;;14.30;99.90;;;;;;5054093;28;20436;-83
2024/02/29 12:32:54;;;;;;;13.73;12.32;;;14.40;99.90;;;;;;5068434;28;20517;-85
2024/02/29 12:35:21;;;;;;;15.07;13.00;;;15.40;99.90;;;;;;5074504;28;20375;-84